Aviation Digital Data Service (ADDS)

Output produced by METARs form (1430 UTC 24 August 2019)
found at http://www.aviationweather.gov/metar/data/
 
METAR text: RJTO 240800Z 22014KT 9999 FEW013 26/23 Q1008
Conditions at: RJTO (OSHIMA AIRPORT , JP) observed 0800 UTC 24 August 2019
Temperature: 26.0°C (79°F)
Dewpoint: 23.0°C (73°F) [RH = 84%]
Pressure (altimeter): 29.76 inches Hg (1008.0 mb)
Winds: from the SW (220 degrees) at 16 MPH (14 knots; 7.2 m/s)
Visibility: 6 or more miles (10+ km)
Ceiling: at least 12,000 feet AGL
Clouds: few clouds at 1300 feet AGL
Weather: no significant weather observed at this time

METAR text: RJTO 240700Z 22013G24KT 9999 FEW015 27/24 Q1008
Conditions at: RJTO (OSHIMA AIRPORT , JP) observed 0700 UTC 24 August 2019
Temperature: 27.0°C (81°F)
Dewpoint: 24.0°C (75°F) [RH = 84%]
Pressure (altimeter): 29.76 inches Hg (1008.0 mb)
Winds: from the SW (220 degrees) at 15 MPH (13 knots; 6.7 m/s)
gusting to 28 MPH (24 knots; 12.3 m/s)
Visibility: 6 or more miles (10+ km)
Ceiling: at least 12,000 feet AGL
Clouds: few clouds at 1500 feet AGL
Weather: no significant weather observed at this time

METAR text: RJTO 240600Z 22013KT 9999 FEW015 27/23 Q1008
Conditions at: RJTO (OSHIMA AIRPORT , JP) observed 0600 UTC 24 August 2019
Temperature: 27.0°C (81°F)
Dewpoint: 23.0°C (73°F) [RH = 79%]
Pressure (altimeter): 29.76 inches Hg (1008.0 mb)
Winds: from the SW (220 degrees) at 15 MPH (13 knots; 6.7 m/s)
Visibility: 6 or more miles (10+ km)
Ceiling: at least 12,000 feet AGL
Clouds: few clouds at 1500 feet AGL
Weather: no significant weather observed at this time

METAR text: RJTO 240500Z 22015KT 9999 FEW015 28/24 Q1007
Conditions at: RJTO (OSHIMA AIRPORT , JP) observed 0500 UTC 24 August 2019
Temperature: 28.0°C (82°F)
Dewpoint: 24.0°C (75°F) [RH = 79%]
Pressure (altimeter): 29.73 inches Hg (1007.0 mb)
Winds: from the SW (220 degrees) at 17 MPH (15 knots; 7.7 m/s)
Visibility: 6 or more miles (10+ km)
Ceiling: at least 12,000 feet AGL
Clouds: few clouds at 1500 feet AGL
Weather: no significant weather observed at this time

METAR text: RJTO 240400Z 22015KT 9999 FEW020 SCT/// 28/23 Q1008
Conditions at: RJTO (OSHIMA AIRPORT , JP) observed 0400 UTC 24 August 2019
Temperature: 28.0°C (82°F)
Dewpoint: 23.0°C (73°F) [RH = 74%]
Pressure (altimeter): 29.76 inches Hg (1008.0 mb)
Winds: from the SW (220 degrees) at 17 MPH (15 knots; 7.7 m/s)
Visibility: 6 or more miles (10+ km)
Ceiling: at least 12,000 feet AGL
Clouds: few clouds at 2000 feet AGL
Weather: no significant weather observed at this time

METAR text: RJTO 240300Z 22015KT 9999 FEW015 BKN/// 28/23 Q1008
Conditions at: RJTO (OSHIMA AIRPORT , JP) observed 0300 UTC 24 August 2019
Temperature: 28.0°C (82°F)
Dewpoint: 23.0°C (73°F) [RH = 74%]
Pressure (altimeter): 29.76 inches Hg (1008.0 mb)
Winds: from the SW (220 degrees) at 17 MPH (15 knots; 7.7 m/s)
Visibility: 6 or more miles (10+ km)
Ceiling: at least 12,000 feet AGL
Clouds: few clouds at 1500 feet AGL
Weather: no significant weather observed at this time

METAR text: RJTO 240200Z 22016G26KT 9999 FEW015 SCT080 BKN/// 27/22 Q1009
Conditions at: RJTO (OSHIMA AIRPORT , JP) observed 0200 UTC 24 August 2019
Temperature: 27.0°C (81°F)
Dewpoint: 22.0°C (72°F) [RH = 74%]
Pressure (altimeter): 29.79 inches Hg (1009.0 mb)
Winds: from the SW (220 degrees) at 18 MPH (16 knots; 8.2 m/s)
gusting to 30 MPH (26 knots; 13.4 m/s)
Visibility: 6 or more miles (10+ km)
Ceiling: at least 12,000 feet AGL
Clouds: few clouds at 1500 feet AGL
scattered clouds at 8000 feet AGL
Weather: no significant weather observed at this time

METAR text: RJTO 240100Z 21013KT 9999 -SHRA FEW015 SCT100 BKN/// 25/22 Q1009
Conditions at: RJTO (OSHIMA AIRPORT , JP) observed 0100 UTC 24 August 2019
Temperature: 25.0°C (77°F)
Dewpoint: 22.0°C (72°F) [RH = 83%]
Pressure (altimeter): 29.79 inches Hg (1009.0 mb)
Winds: from the SSW (210 degrees) at 15 MPH (13 knots; 6.7 m/s)
Visibility: 6 or more miles (10+ km)
Ceiling: at least 12,000 feet AGL
Clouds: few clouds at 1500 feet AGL
scattered clouds at 10000 feet AGL
Weather: -SHRA  (light rain showers)

METAR text: RJTO 240000Z 21015KT 9999 -SHRA FEW015 BKN100 BKN140 24/22 Q1009
Conditions at: RJTO (OSHIMA AIRPORT , JP) observed 0000 UTC 24 August 2019
Temperature: 24.0°C (75°F)
Dewpoint: 22.0°C (72°F) [RH = 89%]
Pressure (altimeter): 29.79 inches Hg (1009.0 mb)
Winds: from the SSW (210 degrees) at 17 MPH (15 knots; 7.7 m/s)
Visibility: 6 or more miles (10+ km)
Ceiling: 10000 feet AGL
Clouds: few clouds at 1500 feet AGL
broken clouds at 10000 feet AGL
broken clouds at 14000 feet AGL
Weather: -SHRA  (light rain showers)

METAR text: RJTO 232300Z 21011KT 9999 -SHRA FEW020 BKN100 BKN150 25/23 Q1008
Conditions at: RJTO (OSHIMA AIRPORT , JP) observed 2300 UTC 23 August 2019
Temperature: 25.0°C (77°F)
Dewpoint: 23.0°C (73°F) [RH = 89%]
Pressure (altimeter): 29.76 inches Hg (1008.0 mb)
Winds: from the SSW (210 degrees) at 13 MPH (11 knots; 5.7 m/s)
Visibility: 6 or more miles (10+ km)
Ceiling: 10000 feet AGL
Clouds: few clouds at 2000 feet AGL
broken clouds at 10000 feet AGL
broken clouds at 15000 feet AGL
Weather: -SHRA  (light rain showers)

METAR text: RJTO 230800Z 20014KT 9999 FEW010 SCT180 BKN/// 25/24 Q1005
Conditions at: RJTO (OSHIMA AIRPORT , JP) observed 0800 UTC 23 August 2019
Temperature: 25.0°C (77°F)
Dewpoint: 24.0°C (75°F) [RH = 94%]
Pressure (altimeter): 29.68 inches Hg (1005.0 mb)
Winds: from the SSW (200 degrees) at 16 MPH (14 knots; 7.2 m/s)
Visibility: 6 or more miles (10+ km)
Ceiling: at least 12,000 feet AGL
Clouds: few clouds at 1000 feet AGL
scattered clouds at 18000 feet AGL
Weather: no significant weather observed at this time

METAR text: RJTO 230700Z 21013KT 7000 -SHRA FEW006 SCT090 BKN110 25/25 Q1006
Conditions at: RJTO (OSHIMA AIRPORT , JP) observed 0700 UTC 23 August 2019
Temperature: 25.0°C (77°F)
Dewpoint: 25.0°C (77°F) [RH = 100%]
Pressure (altimeter): 29.70 inches Hg (1006.0 mb)
Winds: from the SSW (210 degrees) at 15 MPH (13 knots; 6.7 m/s)
Visibility: 4 miles ( 7 km)
Ceiling: 11000 feet AGL
Clouds: few clouds at 600 feet AGL
scattered clouds at 9000 feet AGL
broken clouds at 11000 feet AGL
Weather: -SHRA  (light rain showers)

METAR text: RJTO 230600Z 21020KT 9999 -SHRA FEW006 FEW020CB SCT090 BKN140 25/24 Q1005
Conditions at: RJTO (OSHIMA AIRPORT , JP) observed 0600 UTC 23 August 2019
Temperature: 25.0°C (77°F)
Dewpoint: 24.0°C (75°F) [RH = 94%]
Pressure (altimeter): 29.68 inches Hg (1005.0 mb)
Winds: from the SSW (210 degrees) at 23 MPH (20 knots; 10.3 m/s)
Visibility: 6 or more miles (10+ km)
Ceiling: 14000 feet AGL
Clouds: few clouds at 600 feet AGL
few clouds at 2000 feet AGL
scattered clouds at 9000 feet AGL
broken clouds at 14000 feet AGL
Weather: -SHRA  (light rain showers)

METAR text: RJTO 230500Z 21018G28KT 9999 -SHRA FEW009 SCT090 BKN110 27/25 Q1005
Conditions at: RJTO (OSHIMA AIRPORT , JP) observed 0500 UTC 23 August 2019
Temperature: 27.0°C (81°F)
Dewpoint: 25.0°C (77°F) [RH = 89%]
Pressure (altimeter): 29.68 inches Hg (1005.0 mb)
Winds: from the SSW (210 degrees) at 21 MPH (18 knots; 9.3 m/s)
gusting to 32 MPH (28 knots; 14.4 m/s)
Visibility: 6 or more miles (10+ km)
Ceiling: 11000 feet AGL
Clouds: few clouds at 900 feet AGL
scattered clouds at 9000 feet AGL
broken clouds at 11000 feet AGL
Weather: -SHRA  (light rain showers)

METAR text: RJTO 230400Z 21018KT 9999 FEW008 FEW025CB SCT120 BKN180 28/25 Q1005
Conditions at: RJTO (OSHIMA AIRPORT , JP) observed 0400 UTC 23 August 2019
Temperature: 28.0°C (82°F)
Dewpoint: 25.0°C (77°F) [RH = 84%]
Pressure (altimeter): 29.68 inches Hg (1005.0 mb)
Winds: from the SSW (210 degrees) at 21 MPH (18 knots; 9.3 m/s)
Visibility: 6 or more miles (10+ km)
Ceiling: 18000 feet AGL
Clouds: few clouds at 800 feet AGL
few clouds at 2500 feet AGL
scattered clouds at 12000 feet AGL
broken clouds at 18000 feet AGL
Weather: no significant weather observed at this time

METAR text: RJTO 230300Z 22019KT 9999 -SHRA FEW007 FEW025CB BKN110 BKN180 27/25 Q1005
Conditions at: RJTO (OSHIMA AIRPORT , JP) observed 0300 UTC 23 August 2019
Temperature: 27.0°C (81°F)
Dewpoint: 25.0°C (77°F) [RH = 89%]
Pressure (altimeter): 29.68 inches Hg (1005.0 mb)
Winds: from the SW (220 degrees) at 22 MPH (19 knots; 9.8 m/s)
Visibility: 6 or more miles (10+ km)
Ceiling: 11000 feet AGL
Clouds: few clouds at 700 feet AGL
few clouds at 2500 feet AGL
broken clouds at 11000 feet AGL
broken clouds at 18000 feet AGL
Weather: -SHRA  (light rain showers)